Time;durP1;ratioP1;P1;durP2;ratioP2;P2;SDS_P1;SDS_P2;PMS_P1;PMS_P2;Temp;Humidity;BMP_temperature;BMP_pressure;BME280_temperature;BME280_humidity;BME280_pressure;Samples;Min_cycle;Max_cycle;Signal;HPM_P1;HPM_P2
2020/12/31 00:02:07;;;;;;;8.02;6.97;;;3.60;99.90;;;;;;5072670;28;20223;-80
2020/12/31 00:04:34;;;;;;;8.63;6.60;;;3.50;99.90;;;;;;5089047;28;20206;-80
2020/12/31 00:07:02;;;;;;;8.38;5.85;;;3.50;99.90;;;;;;5090874;28;20206;-79
2020/12/31 00:09:31;;;;;;;6.18;5.57;;;3.50;99.90;;;;;;5071777;28;20734;-80
2020/12/31 00:11:58;;;;;;;6.30;5.70;;;3.30;99.90;;;;;;5083534;28;20195;-80
2020/12/31 00:14:26;;;;;;;5.35;4.85;;;3.40;99.90;;;;;;5084952;28;20232;-80
2020/12/31 00:16:53;;;;;;;5.45;4.65;;;3.50;99.90;;;;;;5088728;28;20668;-80
2020/12/31 00:19:20;;;;;;;4.85;4.38;;;3.50;99.90;;;;;;5081605;28;20194;-80
2020/12/31 00:21:47;;;;;;;5.35;4.35;;;3.50;99.90;;;;;;5091384;28;20645;-79
2020/12/31 00:24:16;;;;;;;4.85;4.30;;;3.40;99.90;;;;;;5089274;28;20260;-79
2020/12/31 00:26:44;;;;;;;4.80;4.35;;;2.90;99.70;;;;;;5071378;28;20688;-79
2020/12/31 00:29:11;;;;;;;4.78;4.32;;;3.00;99.90;;;;;;5069921;28;20206;-80
2020/12/31 00:31:37;;;;;;;4.47;3.95;;;3.30;99.90;;;;;;5070534;28;20820;-79
2020/12/31 00:34:04;;;;;;;4.82;4.43;;;3.40;99.90;;;;;;5085010;28;20199;-80
2020/12/31 00:36:30;;;;;;;4.22;3.92;;;3.40;99.90;;;;;;5090252;28;20222;-79
2020/12/31 00:38:58;;;;;;;4.05;3.65;;;3.50;99.90;;;;;;5089983;28;20210;-80
2020/12/31 00:41:24;;;;;;;3.83;3.53;;;3.50;99.90;;;;;;5089254;28;20223;-79
2020/12/31 00:43:51;;;;;;;4.07;3.67;;;3.50;99.90;;;;;;5086979;28;20195;-79
2020/12/31 00:46:18;;;;;;;3.88;3.47;;;3.50;99.90;;;;;;5086151;28;20202;-79
2020/12/31 00:48:44;;;;;;;4.47;4.07;;;3.20;99.50;;;;;;5085118;28;20537;-79
2020/12/31 00:51:11;;;;;;;3.72;3.13;;;3.20;99.70;;;;;;5079565;28;20248;-79
2020/12/31 00:53:37;;;;;;;4.75;3.90;;;3.10;99.60;;;;;;5091909;28;20195;-79
2020/12/31 00:56:04;;;;;;;3.97;3.35;;;3.20;99.70;;;;;;5075015;28;20191;-80
2020/12/31 00:58:30;;;;;;;4.07;3.55;;;3.20;99.90;;;;;;5079922;28;20210;-79
2020/12/31 01:00:58;;;;;;;4.55;3.33;;;3.10;99.40;;;;;;5075096;28;20214;-79
2020/12/31 01:03:24;;;;;;;4.40;3.45;;;3.10;99.60;;;;;;5091712;28;20721;-79
2020/12/31 01:05:51;;;;;;;3.95;3.65;;;3.00;99.40;;;;;;5073188;28;20735;-80
2020/12/31 01:08:17;;;;;;;4.95;3.75;;;3.00;99.70;;;;;;5087417;28;20191;-79
2020/12/31 01:10:44;;;;;;;3.58;3.22;;;3.00;99.80;;;;;;5075754;28;20191;-79
2020/12/31 01:13:10;;;;;;;3.50;3.17;;;3.00;99.80;;;;;;5079512;28;20195;-80
2020/12/31 01:15:36;;;;;;;4.47;3.60;;;3.00;99.90;;;;;;5081899;28;20199;-79
2020/12/31 01:18:04;;;;;;;3.38;3.08;;;2.90;99.80;;;;;;5078924;28;20237;-80
2020/12/31 01:20:30;;;;;;;4.30;3.85;;;3.00;99.90;;;;;;5084537;28;20195;-79
2020/12/31 01:22:57;;;;;;;4.30;3.90;;;3.00;99.70;;;;;;5088228;28;20707;-80
2020/12/31 01:25:23;;;;;;;5.78;3.65;;;3.00;99.70;;;;;;5084998;28;20226;-79
2020/12/31 01:27:49;;;;;;;5.50;4.03;;;2.90;99.60;;;;;;5075994;28;20217;-80
2020/12/31 01:30:16;;;;;;;4.82;4.38;;;2.80;99.60;;;;;;5094048;28;20202;-80
2020/12/31 01:32:42;;;;;;;5.03;4.30;;;2.80;99.80;;;;;;5090293;28;20651;-79
2020/12/31 01:35:09;;;;;;;4.85;4.35;;;2.70;99.90;;;;;;5072858;28;20244;-79
2020/12/31 01:37:36;;;;;;;6.28;4.32;;;2.70;99.90;;;;;;5074492;28;20250;-80
2020/12/31 01:40:02;;;;;;;5.20;4.70;;;2.80;99.90;;;;;;5078672;28;20236;-80
2020/12/31 01:42:29;;;;;;;6.03;5.25;;;2.90;99.70;;;;;;5073696;28;20247;-79
2020/12/31 01:44:55;;;;;;;6.15;5.35;;;2.80;99.40;;;;;;5078804;28;20199;-79
2020/12/31 01:47:22;;;;;;;7.13;5.65;;;2.70;99.50;;;;;;5073858;28;20563;-80
2020/12/31 01:49:50;;;;;;;7.05;5.50;;;2.70;99.70;;;;;;5093412;28;20230;-80
2020/12/31 01:52:18;;;;;;;6.43;5.82;;;2.70;99.80;;;;;;5083652;28;20207;-80
2020/12/31 01:54:47;;;;;;;8.98;6.22;;;2.80;99.90;;;;;;5086801;28;20639;-80
2020/12/31 01:57:13;;;;;;;9.40;6.05;;;2.90;99.80;;;;;;5092051;28;20210;-80
2020/12/31 01:59:39;;;;;;;10.00;7.63;;;2.90;99.70;;;;;;5091745;28;20218;-80
2020/12/31 02:02:08;;;;;;;10.80;6.43;;;2.90;99.70;;;;;;5092548;28;20583;-80
2020/12/31 02:04:40;;;;;;;10.02;6.72;;;3.00;99.80;;;;;;5078919;28;20272;-80
2020/12/31 02:07:08;;;;;;;6.10;5.05;;;3.00;99.70;;;;;;5082723;28;20254;-81
2020/12/31 02:09:36;;;;;;;8.30;6.05;;;3.10;99.70;;;;;;5082914;28;20233;-80
2020/12/31 02:12:07;;;;;;;6.85;5.40;;;3.10;99.60;;;;;;5089599;28;20198;-80
2020/12/31 02:14:36;;;;;;;10.77;5.65;;;3.10;99.50;;;;;;5087153;28;20195;-81
2020/12/31 02:17:03;;;;;;;7.25;6.03;;;3.00;99.40;;;;;;5077129;28;20211;-80
2020/12/31 02:19:31;;;;;;;7.70;5.97;;;3.00;99.40;;;;;;5087636;28;20195;-80
2020/12/31 02:22:00;;;;;;;12.98;6.18;;;3.00;99.40;;;;;;5089233;28;20211;-79
2020/12/31 02:24:27;;;;;;;7.38;6.25;;;2.90;99.40;;;;;;5082326;28;20192;-79
2020/12/31 02:26:55;;;;;;;7.13;6.07;;;3.00;99.40;;;;;;5074395;28;20190;-80
2020/12/31 02:29:23;;;;;;;8.00;5.75;;;3.00;99.40;;;;;;5086906;28;20198;-81
2020/12/31 02:31:50;;;;;;;8.77;6.85;;;2.80;99.10;;;;;;5084669;28;20294;-80
2020/12/31 02:34:18;;;;;;;8.32;6.57;;;2.80;99.20;;;;;;5073240;28;20689;-80
2020/12/31 02:36:45;;;;;;;8.70;5.93;;;2.70;99.10;;;;;;5079938;28;20191;-80
2020/12/31 02:39:14;;;;;;;7.50;6.38;;;2.50;99.30;;;;;;5082929;28;20191;-80
2020/12/31 02:41:44;;;;;;;6.90;5.63;;;2.60;99.90;;;;;;5086505;28;20230;-80
2020/12/31 02:44:11;;;;;;;6.60;5.97;;;2.70;99.90;;;;;;5082056;28;20697;-80
2020/12/31 02:46:38;;;;;;;7.10;5.82;;;2.60;99.60;;;;;;5075986;28;20764;-80
2020/12/31 02:49:05;;;;;;;8.25;5.65;;;2.60;99.50;;;;;;5074360;28;20204;-80
2020/12/31 02:51:32;;;;;;;7.53;5.88;;;2.60;99.70;;;;;;5071699;28;20214;-80
2020/12/31 02:53:59;;;;;;;7.40;5.53;;;2.50;99.80;;;;;;5081910;28;20221;-80
2020/12/31 02:56:26;;;;;;;7.68;6.25;;;2.50;99.90;;;;;;5091344;28;20679;-80
2020/12/31 02:58:53;;;;;;;7.70;6.55;;;2.60;99.90;;;;;;5078422;28;20248;-80
2020/12/31 03:01:20;;;;;;;6.60;4.90;;;2.40;99.80;;;;;;5091381;28;20202;-80
2020/12/31 03:03:47;;;;;;;7.18;6.13;;;2.20;99.90;;;;;;5078840;28;20260;-80
2020/12/31 03:06:13;;;;;;;8.38;5.60;;;1.90;99.90;;;;;;5091064;28;20202;-80
2020/12/31 03:08:41;;;;;;;6.10;5.50;;;1.90;99.90;;;;;;5081065;28;20236;-80
2020/12/31 03:11:09;;;;;;;6.32;5.45;;;2.00;99.90;;;;;;5090731;28;20285;-80
2020/12/31 03:13:36;;;;;;;6.05;5.45;;;2.00;99.90;;;;;;5088080;28;20690;-80
2020/12/31 03:16:03;;;;;;;6.78;6.10;;;2.00;99.90;;;;;;5081905;28;20199;-80
2020/12/31 03:18:29;;;;;;;6.35;5.22;;;2.00;99.90;;;;;;5076386;28;20202;-80
2020/12/31 03:20:55;;;;;;;8.15;6.22;;;1.90;99.90;;;;;;5090965;28;20198;-80
2020/12/31 03:23:22;;;;;;;7.38;5.85;;;2.00;99.90;;;;;;5087484;28;20242;-80
2020/12/31 03:25:48;;;;;;;6.25;5.47;;;2.00;99.90;;;;;;5070442;28;20257;-79
2020/12/31 03:28:15;;;;;;;6.50;5.90;;;2.00;99.90;;;;;;5080437;28;20195;-80
2020/12/31 03:30:44;;;;;;;5.15;4.65;;;2.00;99.80;;;;;;5070035;28;20214;-80
2020/12/31 03:33:12;;;;;;;6.00;5.40;;;2.00;99.90;;;;;;5075732;28;20230;-80
2020/12/31 03:35:42;;;;;;;7.25;5.60;;;1.90;99.90;;;;;;5070958;28;20199;-80
2020/12/31 03:38:08;;;;;;;8.73;6.30;;;1.90;99.90;;;;;;5070653;28;20202;-79
2020/12/31 03:40:35;;;;;;;6.82;5.45;;;1.80;99.90;;;;;;5070361;28;20231;-79
2020/12/31 03:43:01;;;;;;;6.63;5.95;;;1.70;99.90;;;;;;5072797;28;20248;-79
2020/12/31 03:45:28;;;;;;;11.60;5.82;;;1.70;99.90;;;;;;5072158;28;20204;-79
2020/12/31 03:47:55;;;;;;;6.00;4.97;;;1.70;99.90;;;;;;5084089;28;20656;-79
2020/12/31 03:50:22;;;;;;;6.22;5.50;;;1.60;99.90;;;;;;5070585;28;20199;-78
2020/12/31 03:52:48;;;;;;;6.10;4.60;;;1.60;99.90;;;;;;5089683;28;20210;-80
2020/12/31 03:55:15;;;;;;;6.25;5.28;;;1.60;99.90;;;;;;5090622;28;20252;-79
2020/12/31 03:57:42;;;;;;;7.45;5.22;;;1.60;99.90;;;;;;5090229;28;20237;-79
2020/12/31 04:00:08;;;;;;;5.13;4.65;;;1.60;99.90;;;;;;5070803;28;20653;-79
2020/12/31 04:02:34;;;;;;;6.13;5.53;;;1.60;99.90;;;;;;5070676;28;20234;-79
2020/12/31 04:05:02;;;;;;;8.40;5.70;;;1.60;99.90;;;;;;5084476;28;20194;-79
2020/12/31 04:07:29;;;;;;;7.30;5.80;;;1.70;99.90;;;;;;5088348;28;20287;-79
2020/12/31 04:09:55;;;;;;;5.35;4.85;;;1.70;99.90;;;;;;5084068;28;20233;-79
2020/12/31 04:12:22;;;;;;;6.68;4.80;;;1.70;99.90;;;;;;5075268;28;20541;-79
2020/12/31 04:14:48;;;;;;;5.20;4.25;;;1.70;99.70;;;;;;5074988;28;20625;-79
2020/12/31 04:17:14;;;;;;;6.60;4.88;;;1.60;99.50;;;;;;5069641;28;20203;-79
2020/12/31 04:19:41;;;;;;;5.35;4.85;;;1.60;99.70;;;;;;5074644;28;20234;-79
2020/12/31 04:22:09;;;;;;;5.72;4.90;;;1.60;99.80;;;;;;5081055;28;20707;-79
2020/12/31 04:24:36;;;;;;;4.80;4.05;;;1.50;99.70;;;;;;5078141;28;20694;-78
2020/12/31 04:27:02;;;;;;;8.20;4.38;;;1.60;99.60;;;;;;5083391;28;20219;-79
2020/12/31 04:29:30;;;;;;;4.72;4.32;;;1.60;99.40;;;;;;5086782;28;20207;-79
2020/12/31 04:31:56;;;;;;;5.95;5.30;;;1.50;99.30;;;;;;5091990;28;20283;-79
2020/12/31 04:34:23;;;;;;;5.38;4.97;;;1.40;99.30;;;;;;5091997;28;20206;-79
2020/12/31 04:36:49;;;;;;;5.80;4.40;;;1.50;99.30;;;;;;5092814;28;20206;-79
2020/12/31 04:39:16;;;;;;;7.65;5.55;;;1.50;99.20;;;;;;5090860;28;20675;-78
2020/12/31 04:41:43;;;;;;;6.35;4.18;;;1.50;99.00;;;;;;5079232;28;20258;-79
2020/12/31 04:44:13;;;;;;;5.03;4.28;;;1.50;98.90;;;;;;5074122;28;20192;-78
2020/12/31 04:46:41;;;;;;;5.60;5.10;;;1.40;98.90;;;;;;5072224;28;20222;-78
2020/12/31 04:49:11;;;;;;;5.90;5.30;;;1.40;98.90;;;;;;5071780;28;20206;-78
2020/12/31 04:51:38;;;;;;;4.15;3.88;;;1.40;98.80;;;;;;5072657;28;20206;-79
2020/12/31 04:54:07;;;;;;;4.18;3.78;;;1.30;98.40;;;;;;5073302;28;20215;-79
2020/12/31 04:56:36;;;;;;;3.97;3.47;;;1.30;98.70;;;;;;5072041;28;20214;-78
2020/12/31 04:59:03;;;;;;;4.75;4.35;;;1.40;98.70;;;;;;5081917;28;20222;-78
2020/12/31 05:01:30;;;;;;;4.82;3.75;;;1.40;98.60;;;;;;5091708;28;20260;-79
2020/12/31 05:03:56;;;;;;;4.25;3.85;;;1.40;98.50;;;;;;5091639;28;20556;-79
2020/12/31 05:06:26;;;;;;;3.78;3.35;;;1.40;98.40;;;;;;5091298;28;20201;-79
2020/12/31 05:08:52;;;;;;;7.85;4.65;;;1.40;98.20;;;;;;5090702;28;20211;-78
2020/12/31 05:11:19;;;;;;;5.25;4.32;;;1.40;98.00;;;;;;5091499;28;20252;-78
2020/12/31 05:13:48;;;;;;;5.05;3.20;;;1.50;97.70;;;;;;5081165;28;20196;-79
2020/12/31 05:16:26;;;;;;;4.38;3.50;;;1.50;97.70;;;;;;5082847;28;20249;-79
2020/12/31 05:18:52;;;;;;;5.50;4.30;;;1.50;97.10;;;;;;5082010;28;20561;-78
2020/12/31 05:21:19;;;;;;;4.32;3.47;;;1.50;97.00;;;;;;5080660;28;20215;-78
2020/12/31 05:23:45;;;;;;;4.28;2.83;;;1.50;96.80;;;;;;5084276;28;20223;-79
2020/12/31 05:26:27;;;;;;;3.60;3.25;;;1.50;96.70;;;;;;5072676;28;20640;-78
2020/12/31 05:28:55;;;;;;;3.67;3.38;;;1.50;96.60;;;;;;5081511;28;20205;-78
2020/12/31 05:31:21;;;;;;;5.20;3.25;;;1.60;96.30;;;;;;5077883;28;20238;-79
2020/12/31 05:33:48;;;;;;;4.00;3.35;;;1.50;96.00;;;;;;5076404;28;21104;-78
2020/12/31 05:36:17;;;;;;;3.35;2.83;;;1.50;96.00;;;;;;5083145;28;20655;-79
2020/12/31 05:38:45;;;;;;;3.78;3.30;;;1.50;96.10;;;;;;5070287;28;20729;-78
2020/12/31 05:41:12;;;;;;;4.30;3.38;;;1.40;96.10;;;;;;5063596;28;20212;-79
2020/12/31 05:43:41;;;;;;;4.05;3.55;;;1.50;95.90;;;;;;5061106;28;20798;-78
2020/12/31 05:46:10;;;;;;;5.00;3.78;;;1.60;95.70;;;;;;5072629;28;20199;-79
2020/12/31 05:48:37;;;;;;;5.20;3.65;;;1.60;95.40;;;;;;5077210;28;20615;-78
2020/12/31 05:51:22;;;;;;;4.13;3.50;;;1.60;95.10;;;;;;5071675;28;20278;-79
2020/12/31 05:53:49;;;;;;;3.70;3.40;;;1.50;95.00;;;;;;5085501;28;20194;-79
2020/12/31 05:56:17;;;;;;;5.82;3.85;;;1.50;95.10;;;;;;5088551;28;20279;-78
2020/12/31 05:58:48;;;;;;;4.53;3.58;;;1.50;95.20;;;;;;5084038;28;20231;-78
2020/12/31 06:01:17;;;;;;;3.75;3.40;;;1.60;95.20;;;;;;5088949;28;20668;-79
2020/12/31 06:03:51;;;;;;;4.30;3.90;;;1.50;95.00;;;;;;5085976;28;20794;-78
2020/12/31 06:06:22;;;;;;;4.20;3.80;;;1.50;95.10;;;;;;5082345;28;20192;-78
2020/12/31 06:08:55;;;;;;;4.60;4.20;;;1.50;95.00;;;;;;5071165;28;20203;-79
2020/12/31 06:11:31;;;;;;;4.75;4.13;;;1.40;95.20;;;;;;5077399;28;20271;-78
2020/12/31 06:13:58;;;;;;;6.25;3.83;;;1.40;95.50;;;;;;5084123;28;20210;-78
2020/12/31 06:16:28;;;;;;;3.40;2.97;;;1.40;95.50;;;;;;5090348;28;20249;-78
2020/12/31 06:19:01;;;;;;;4.25;3.53;;;1.50;95.60;;;;;;5082356;28;20646;-78
2020/12/31 06:21:41;;;;;;;5.30;4.35;;;1.50;95.50;;;;;;5070969;28;20211;-78
2020/12/31 06:24:13;;;;;;;4.65;4.00;;;1.50;95.40;;;;;;5086982;28;20249;-79
2020/12/31 06:26:41;;;;;;;4.68;3.85;;;1.50;95.40;;;;;;5083989;28;20220;-78
2020/12/31 06:29:09;;;;;;;4.85;4.03;;;1.50;95.10;;;;;;5080233;28;20202;-79
2020/12/31 06:31:41;;;;;;;4.97;4.13;;;1.50;95.10;;;;;;5080142;28;20206;-78
2020/12/31 06:34:08;;;;;;;3.92;3.53;;;1.60;95.20;;;;;;5081345;28;20660;-78
2020/12/31 06:36:35;;;;;;;5.07;4.57;;;1.60;95.20;;;;;;5075353;28;20619;-78
2020/12/31 06:39:03;;;;;;;6.18;5.10;;;1.60;95.30;;;;;;5079260;28;20644;-78
2020/12/31 06:41:40;;;;;;;3.83;3.50;;;1.70;95.00;;;;;;5089026;28;20213;-78
2020/12/31 06:44:07;;;;;;;6.88;4.32;;;1.60;95.10;;;;;;5075883;28;20194;-79
2020/12/31 06:46:40;;;;;;;5.80;4.72;;;1.50;95.10;;;;;;5089068;28;20210;-79
2020/12/31 06:49:08;;;;;;;10.43;4.28;;;1.60;95.50;;;;;;5080158;28;20235;-78
2020/12/31 06:51:35;;;;;;;6.50;4.55;;;1.60;95.30;;;;;;5070120;28;20210;-78
2020/12/31 06:54:01;;;;;;;4.93;4.53;;;1.70;95.20;;;;;;5071936;28;20200;-79
2020/12/31 06:56:48;;;;;;;6.18;5.00;;;1.70;95.10;;;;;;5070332;28;20289;-79
2020/12/31 06:59:28;;;;;;;7.43;5.88;;;1.70;95.10;;;;;;5077893;28;20259;-79
2020/12/31 07:01:56;;;;;;;5.45;4.68;;;1.80;95.00;;;;;;5089782;28;20230;-79
2020/12/31 07:04:30;;;;;;;7.30;5.55;;;1.70;95.10;;;;;;5077646;28;20214;-78
2020/12/31 07:06:57;;;;;;;7.40;5.72;;;1.80;95.30;;;;;;5088867;28;20207;-79
2020/12/31 07:09:32;;;;;;;6.72;6.03;;;1.70;95.20;;;;;;5088528;28;20195;-79
2020/12/31 07:12:00;;;;;;;5.47;4.70;;;1.70;95.70;;;;;;5075288;28;20548;-79
2020/12/31 07:14:28;;;;;;;6.20;5.50;;;1.70;95.30;;;;;;5084333;28;20213;-79
2020/12/31 07:17:03;;;;;;;8.05;6.38;;;2.00;95.30;;;;;;5076171;28;20195;-78
2020/12/31 07:19:42;;;;;;;5.75;5.20;;;1.90;95.10;;;;;;5073133;28;20194;-79
2020/12/31 07:22:17;;;;;;;6.93;5.63;;;1.90;95.10;;;;;;5070680;28;20264;-79
2020/12/31 07:24:48;;;;;;;6.68;5.43;;;2.00;94.90;;;;;;5070337;28;20199;-79
2020/12/31 07:27:20;;;;;;;6.65;6.05;;;2.00;94.90;;;;;;5074006;28;20195;-78
2020/12/31 07:29:57;;;;;;;6.97;6.28;;;2.00;94.80;;;;;;5086326;28;20202;-79
2020/12/31 07:32:49;;;;;;;6.50;5.80;;;2.00;94.80;;;;;;5083094;28;20207;-79
2020/12/31 07:35:20;;;;;;;6.93;6.20;;;2.00;94.80;;;;;;5077939;28;20210;-79
2020/12/31 07:37:51;;;;;;;7.68;6.10;;;2.10;94.90;;;;;;5069296;28;20191;-79
2020/12/31 07:40:36;;;;;;;7.95;6.70;;;2.10;94.70;;;;;;5070694;28;20495;-79
2020/12/31 07:43:03;;;;;;;7.40;5.60;;;2.10;94.60;;;;;;5076540;28;20279;-79
2020/12/31 07:45:31;;;;;;;8.02;5.70;;;2.20;94.80;;;;;;5089829;28;20267;-78
2020/12/31 07:47:59;;;;;;;6.88;6.18;;;2.20;94.70;;;;;;5078542;28;20283;-79
2020/12/31 07:50:26;;;;;;;6.90;6.15;;;2.30;94.50;;;;;;5076366;28;20199;-78
2020/12/31 07:52:53;;;;;;;9.82;7.15;;;2.50;94.60;;;;;;5088731;28;20199;-79
2020/12/31 07:55:19;;;;;;;8.45;6.35;;;2.40;94.40;;;;;;5090393;28;20236;-79
2020/12/31 07:57:47;;;;;;;7.95;7.15;;;2.40;94.50;;;;;;5090686;28;20350;-79
2020/12/31 08:00:15;;;;;;;9.88;8.45;;;2.50;94.40;;;;;;5090899;28;20226;-79
2020/12/31 08:02:45;;;;;;;8.02;7.18;;;2.60;94.30;;;;;;5091913;28;20218;-79
2020/12/31 08:05:14;;;;;;;7.25;6.55;;;2.60;94.10;;;;;;5090631;28;20194;-79
2020/12/31 08:07:41;;;;;;;8.77;6.45;;;2.60;94.20;;;;;;5088245;28;20594;-79
2020/12/31 08:10:08;;;;;;;8.93;6.38;;;2.60;94.00;;;;;;5084519;28;20199;-79
2020/12/31 08:12:35;;;;;;;8.40;7.00;;;2.60;93.90;;;;;;5092962;28;20207;-78
2020/12/31 08:15:01;;;;;;;10.38;8.23;;;2.70;94.10;;;;;;5093144;28;20191;-79
2020/12/31 08:17:28;;;;;;;8.35;7.32;;;2.80;94.20;;;;;;5091692;28;20428;-78
2020/12/31 08:19:55;;;;;;;9.77;8.45;;;2.90;94.00;;;;;;5079510;28;20245;-79
2020/12/31 08:22:30;;;;;;;10.32;7.50;;;2.90;93.70;;;;;;5073595;28;20260;-79
2020/12/31 08:25:02;;;;;;;9.15;7.72;;;2.90;93.50;;;;;;5074563;28;20195;-79
2020/12/31 08:27:29;;;;;;;7.75;6.50;;;2.90;93.80;;;;;;5077906;28;20202;-79
2020/12/31 08:29:57;;;;;;;9.77;7.55;;;2.90;93.90;;;;;;5091367;28;20222;-79
2020/12/31 08:32:26;;;;;;;8.48;7.45;;;3.00;93.90;;;;;;5075276;28;20199;-79
2020/12/31 08:34:55;;;;;;;9.95;7.70;;;3.00;93.80;;;;;;5093683;28;20195;-79
2020/12/31 08:37:25;;;;;;;9.63;6.82;;;3.10;93.70;;;;;;5088156;28;20191;-80
2020/12/31 08:39:53;;;;;;;9.82;7.10;;;3.20;93.70;;;;;;5074587;28;20218;-79
2020/12/31 08:42:22;;;;;;;8.27;7.38;;;3.20;93.60;;;;;;5080246;28;20701;-79
2020/12/31 08:44:53;;;;;;;10.23;7.45;;;3.20;93.80;;;;;;5074549;28;20222;-79
2020/12/31 08:47:21;;;;;;;7.30;6.15;;;3.20;94.00;;;;;;5078980;28;20195;-80
2020/12/31 08:49:53;;;;;;;7.80;6.75;;;3.20;94.00;;;;;;5092639;28;20206;-79
2020/12/31 08:52:19;;;;;;;8.75;7.72;;;3.30;94.00;;;;;;5094087;28;20234;-79
2020/12/31 08:54:46;;;;;;;10.48;8.05;;;3.50;94.00;;;;;;5093069;28;20564;-79
2020/12/31 08:57:16;;;;;;;8.45;6.82;;;3.30;93.90;;;;;;5092686;28;20248;-80
2020/12/31 08:59:43;;;;;;;7.53;6.78;;;3.40;94.00;;;;;;5083427;28;20207;-80
2020/12/31 09:02:12;;;;;;;7.78;6.78;;;3.40;94.00;;;;;;5090749;28;20222;-81
2020/12/31 09:04:39;;;;;;;10.77;8.32;;;3.50;93.80;;;;;;5089315;28;20195;-81
2020/12/31 09:07:10;;;;;;;8.13;7.32;;;3.60;93.70;;;;;;5087236;28;20222;-80
2020/12/31 09:09:37;;;;;;;8.13;7.25;;;3.60;93.60;;;;;;5090446;28;20262;-80
2020/12/31 09:12:06;;;;;;;9.10;7.88;;;3.70;93.50;;;;;;5088581;28;20218;-81
2020/12/31 09:14:33;;;;;;;9.55;7.68;;;3.70;93.10;;;;;;5092076;28;20199;-80
2020/12/31 09:17:01;;;;;;;8.40;7.28;;;3.60;93.00;;;;;;5091871;28;20199;-80
2020/12/31 09:19:27;;;;;;;8.27;7.32;;;3.70;93.10;;;;;;5084205;28;20226;-80
2020/12/31 09:21:54;;;;;;;11.85;8.52;;;3.70;93.20;;;;;;5091526;28;20252;-80
2020/12/31 09:24:21;;;;;;;11.45;8.57;;;3.80;93.30;;;;;;5087362;28;20255;-80
2020/12/31 09:26:52;;;;;;;11.10;8.43;;;3.90;92.90;;;;;;5088715;28;20195;-80
2020/12/31 09:29:20;;;;;;;10.48;8.45;;;3.80;93.00;;;;;;5084433;28;20207;-80
2020/12/31 09:31:46;;;;;;;8.65;7.65;;;3.90;93.10;;;;;;5092524;28;20628;-80
2020/12/31 09:34:13;;;;;;;10.93;8.23;;;4.00;93.10;;;;;;5093514;28;20198;-80
2020/12/31 09:36:39;;;;;;;9.98;8.50;;;4.00;93.10;;;;;;5109684;28;20225;-80
2020/12/31 09:39:06;;;;;;;9.30;7.80;;;4.00;93.00;;;;;;5087004;28;20268;-81
2020/12/31 09:41:32;;;;;;;9.07;7.90;;;3.90;93.10;;;;;;5089700;28;20418;-81
2020/12/31 09:43:59;;;;;;;11.45;8.10;;;4.00;93.30;;;;;;5092221;28;20223;-83
2020/12/31 09:46:26;;;;;;;9.50;7.97;;;4.20;93.00;;;;;;5093502;28;20222;-81
2020/12/31 09:48:53;;;;;;;10.50;8.50;;;4.20;92.80;;;;;;5083997;28;20765;-81
2020/12/31 09:51:20;;;;;;;9.48;7.78;;;4.40;92.80;;;;;;5076167;28;20204;-81
2020/12/31 09:53:47;;;;;;;8.77;7.03;;;4.30;93.00;;;;;;5079334;28;20263;-82
2020/12/31 09:56:13;;;;;;;14.05;8.20;;;4.40;92.60;;;;;;5093246;28;20203;-81
2020/12/31 09:58:40;;;;;;;9.80;8.20;;;4.30;92.60;;;;;;5086791;28;20785;-81
2020/12/31 10:01:07;;;;;;;9.43;7.90;;;4.40;92.50;;;;;;5072653;28;20261;-81
2020/12/31 10:03:34;;;;;;;8.85;6.93;;;4.40;92.40;;;;;;5077716;28;20218;-81
2020/12/31 10:06:01;;;;;;;7.57;6.85;;;4.40;92.50;;;;;;5082742;28;20273;-81
2020/12/31 10:08:27;;;;;;;10.27;8.13;;;4.50;92.60;;;;;;5076948;28;20190;-81
2020/12/31 10:10:54;;;;;;;7.82;6.30;;;4.50;92.20;;;;;;5089815;28;20203;-81
2020/12/31 10:13:23;;;;;;;7.85;6.55;;;4.50;92.00;;;;;;5075845;28;20225;-81
2020/12/31 10:15:49;;;;;;;12.98;9.43;;;4.60;92.00;;;;;;5091390;28;20210;-81
2020/12/31 10:18:16;;;;;;;10.85;7.78;;;4.60;91.40;;;;;;5084100;28;20222;-81
2020/12/31 10:20:43;;;;;;;11.30;7.07;;;4.60;91.50;;;;;;5083142;28;20777;-81
2020/12/31 10:23:09;;;;;;;7.32;6.38;;;4.80;91.80;;;;;;5088548;28;20267;-82
2020/12/31 10:25:36;;;;;;;8.32;6.43;;;4.80;91.50;;;;;;5086820;28;20203;-81
2020/12/31 10:28:02;;;;;;;7.97;6.18;;;4.90;91.40;;;;;;5086065;28;20202;-82
2020/12/31 10:30:28;;;;;;;6.60;5.90;;;5.10;91.40;;;;;;5091934;28;20712;-81
2020/12/31 10:32:55;;;;;;;7.45;6.22;;;4.90;90.50;;;;;;5089983;28;20214;-81
2020/12/31 10:35:22;;;;;;;8.45;7.13;;;4.80;90.90;;;;;;5071264;28;20226;-81
2020/12/31 10:37:49;;;;;;;7.05;5.95;;;4.70;91.30;;;;;;5079408;28;20237;-82
2020/12/31 10:40:15;;;;;;;6.15;5.38;;;4.50;91.30;;;;;;5087188;28;20234;-81
2020/12/31 10:42:42;;;;;;;7.20;6.50;;;4.60;91.80;;;;;;5085876;28;21133;-81
2020/12/31 10:45:08;;;;;;;6.65;5.60;;;4.70;91.70;;;;;;5089837;28;20199;-81
2020/12/31 10:47:35;;;;;;;5.43;4.88;;;4.30;91.50;;;;;;5085557;28;20203;-81
2020/12/31 10:50:01;;;;;;;5.95;5.40;;;4.30;92.20;;;;;;5084305;28;20195;-80
2020/12/31 10:52:28;;;;;;;7.90;4.40;;;4.10;92.80;;;;;;5088528;28;20202;-81
2020/12/31 10:54:55;;;;;;;5.40;4.80;;;3.90;93.20;;;;;;5086018;28;20252;-81
2020/12/31 10:57:21;;;;;;;6.53;5.05;;;3.70;94.30;;;;;;5089797;28;20708;-81
2020/12/31 10:59:48;;;;;;;6.20;4.93;;;3.50;95.20;;;;;;5090508;28;20615;-80
2020/12/31 11:02:15;;;;;;;6.80;5.50;;;3.80;95.80;;;;;;5085063;28;20192;-82
2020/12/31 11:04:41;;;;;;;7.30;5.82;;;3.90;96.00;;;;;;5088740;28;20538;-81
2020/12/31 11:07:08;;;;;;;5.93;5.32;;;4.10;95.80;;;;;;5089075;28;20667;-80
2020/12/31 11:09:38;;;;;;;6.80;5.05;;;4.40;95.90;;;;;;5072589;28;20267;-81
2020/12/31 11:12:05;;;;;;;7.75;5.30;;;4.20;96.30;;;;;;5086458;28;20206;-81
2020/12/31 11:14:32;;;;;;;6.10;5.50;;;4.30;95.60;;;;;;5091220;28;20195;-80
2020/12/31 11:16:58;;;;;;;6.22;5.65;;;4.50;95.50;;;;;;5091475;28;20206;-80
2020/12/31 11:19:26;;;;;;;7.65;6.28;;;4.60;95.30;;;;;;5087831;28;20202;-80
2020/12/31 11:21:52;;;;;;;7.25;5.63;;;4.60;95.10;;;;;;5086860;28;20636;-80
2020/12/31 11:24:19;;;;;;;6.53;5.60;;;4.60;95.50;;;;;;5076767;28;20227;-81
2020/12/31 11:26:45;;;;;;;6.32;5.50;;;4.60;95.40;;;;;;5075221;28;20203;-80
2020/12/31 11:29:13;;;;;;;6.75;6.15;;;4.60;95.20;;;;;;5072152;28;20200;-81
2020/12/31 11:31:40;;;;;;;6.93;5.85;;;4.70;95.50;;;;;;5084814;28;20205;-80
2020/12/31 11:34:06;;;;;;;5.78;5.25;;;4.80;95.60;;;;;;5089025;28;20198;-80
2020/12/31 11:36:33;;;;;;;8.68;5.88;;;4.80;95.80;;;;;;5091432;28;20296;-81
2020/12/31 11:38:59;;;;;;;6.70;6.10;;;4.90;95.80;;;;;;5089149;28;20232;-81
2020/12/31 11:41:28;;;;;;;12.32;6.40;;;4.90;95.50;;;;;;5091244;28;20558;-81
2020/12/31 11:43:54;;;;;;;6.32;5.55;;;4.70;96.10;;;;;;5084928;28;20308;-81
2020/12/31 11:46:22;;;;;;;6.18;5.55;;;4.80;95.80;;;;;;5087887;28;20210;-81
2020/12/31 11:48:48;;;;;;;7.80;5.72;;;4.90;95.80;;;;;;5072582;28;20195;-81
2020/12/31 11:51:14;;;;;;;7.05;6.35;;;4.90;96.10;;;;;;5075206;28;20260;-81
2020/12/31 11:53:41;;;;;;;9.85;6.72;;;5.00;95.80;;;;;;5072503;28;20261;-81
2020/12/31 11:56:08;;;;;;;6.40;5.78;;;5.00;95.50;;;;;;5070073;28;20238;-81
2020/12/31 11:58:35;;;;;;;6.80;6.10;;;5.10;95.60;;;;;;5077891;28;20223;-81
2020/12/31 12:01:01;;;;;;;5.68;5.18;;;5.00;95.90;;;;;;5090152;28;20733;-81
2020/12/31 12:03:29;;;;;;;6.75;6.05;;;5.10;95.90;;;;;;5089337;28;20226;-81
2020/12/31 12:05:56;;;;;;;7.60;5.35;;;4.90;95.90;;;;;;5091689;28;20203;-81
2020/12/31 12:08:27;;;;;;;7.43;5.60;;;5.00;95.90;;;;;;5080657;28;20234;-81
2020/12/31 12:10:54;;;;;;;6.20;5.57;;;5.10;95.60;;;;;;5071690;28;20207;-81
2020/12/31 12:13:21;;;;;;;8.18;5.65;;;5.00;95.40;;;;;;5080527;28;20215;-81
2020/12/31 12:15:47;;;;;;;7.05;5.15;;;5.00;95.40;;;;;;5083052;28;20199;-81
2020/12/31 12:18:13;;;;;;;7.45;6.10;;;4.90;95.50;;;;;;5078285;28;20739;-81
2020/12/31 12:20:41;;;;;;;8.68;6.40;;;4.70;95.50;;;;;;5072699;28;20200;-81
2020/12/31 12:23:07;;;;;;;6.32;5.35;;;4.60;95.20;;;;;;5088845;28;20250;-81
2020/12/31 12:25:33;;;;;;;8.40;5.63;;;4.60;95.80;;;;;;5076242;28;20755;-82
2020/12/31 12:28:00;;;;;;;6.60;5.88;;;4.70;95.60;;;;;;5079467;28;20232;-81
2020/12/31 12:30:26;;;;;;;5.78;5.10;;;4.60;95.60;;;;;;5089930;28;20207;-81
2020/12/31 12:32:53;;;;;;;7.05;5.63;;;4.70;95.70;;;;;;5084557;28;20213;-81
2020/12/31 12:35:19;;;;;;;12.60;6.28;;;4.60;95.60;;;;;;5082555;28;20616;-81
2020/12/31 12:37:46;;;;;;;7.50;6.15;;;4.50;95.70;;;;;;5084066;28;20260;-80
2020/12/31 12:40:14;;;;;;;7.07;5.57;;;4.60;95.90;;;;;;5091264;28;20207;-81
2020/12/31 12:42:40;;;;;;;5.53;5.00;;;4.50;96.10;;;;;;5094156;28;20569;-80
2020/12/31 12:45:08;;;;;;;7.43;5.95;;;4.70;96.20;;;;;;5074970;28;20206;-80
2020/12/31 12:47:35;;;;;;;6.60;5.65;;;4.60;95.90;;;;;;5073596;28;20199;-80
2020/12/31 12:50:03;;;;;;;5.28;4.78;;;4.80;96.20;;;;;;5092251;28;20491;-80
2020/12/31 12:52:30;;;;;;;6.35;5.70;;;4.90;95.90;;;;;;5094267;28;20809;-80
2020/12/31 12:54:58;;;;;;;6.00;5.15;;;4.90;95.90;;;;;;5074585;28;20237;-80
2020/12/31 12:57:25;;;;;;;7.72;5.55;;;4.80;95.90;;;;;;5072181;28;20668;-79
2020/12/31 12:59:52;;;;;;;7.00;5.97;;;4.80;96.10;;;;;;5088733;28;20169;-80